createdAt,value
2019-05-11T00:00:12.724Z,62.70
2019-05-11T00:02:41.897Z,63.10
2019-05-11T00:05:11.185Z,63.20
2019-05-11T00:07:40.400Z,63.61
2019-05-11T00:10:09.802Z,63.94
2019-05-11T00:12:38.977Z,64.51
2019-05-11T00:15:08.587Z,65.67
2019-05-11T00:17:37.826Z,65.61
2019-05-11T00:20:07.991Z,65.09
2019-05-11T00:22:37.313Z,66.20
2019-05-11T00:25:06.657Z,66.89
2019-05-11T00:27:35.799Z,67.16
2019-05-11T00:30:06.720Z,67.28
2019-05-11T00:32:35.958Z,67.68
2019-05-11T00:35:05.366Z,67.48
2019-05-11T00:37:34.539Z,67.27
2019-05-11T00:40:13.846Z,67.25
2019-05-11T00:42:34.650Z,67.79
2019-05-11T00:45:03.910Z,67.70
2019-05-11T00:47:33.100Z,67.70
2019-05-11T00:50:02.216Z,68.04
2019-05-11T00:52:31.668Z,68.10
2019-05-11T00:55:00.912Z,68.15
2019-05-11T00:57:30.172Z,67.89
2019-05-11T00:59:59.320Z,67.93
2019-05-11T01:02:28.521Z,68.01
2019-05-11T01:04:57.732Z,67.76
2019-05-11T01:07:26.972Z,67.66
2019-05-11T01:09:56.117Z,67.38
2019-05-11T01:12:25.328Z,67.49
2019-05-11T01:14:54.497Z,67.35
2019-05-11T01:17:23.713Z,67.30
2019-05-11T01:19:52.893Z,67.24
2019-05-11T01:22:22.100Z,67.05
2019-05-11T01:24:51.298Z,66.88
2019-05-11T01:27:20.473Z,67.07
2019-05-11T01:29:49.654Z,66.89
2019-05-11T01:32:18.836Z,66.75
2019-05-11T01:34:48.027Z,67.20
2019-05-11T01:37:17.212Z,66.55
2019-05-11T01:39:46.384Z,66.76
2019-05-11T01:42:15.544Z,66.81
2019-05-11T01:44:44.777Z,66.82
2019-05-11T01:47:13.974Z,66.73
2019-05-11T01:49:43.108Z,66.05
2019-05-11T01:52:12.269Z,66.15
2019-05-11T01:54:41.412Z,65.72
2019-05-11T01:57:10.605Z,66.21
2019-05-11T01:59:39.736Z,66.74
2019-05-11T02:02:08.907Z,67.27
2019-05-11T02:04:38.049Z,66.85
2019-05-11T02:07:07.158Z,67.26
2019-05-11T02:09:36.314Z,67.22
2019-05-11T02:12:05.428Z,66.69
2019-05-11T02:14:34.544Z,67.52
2019-05-11T02:17:03.689Z,66.48
2019-05-11T02:19:32.784Z,66.79
2019-05-11T02:22:01.897Z,66.18
2019-05-11T02:24:31.076Z,66.27
2019-05-11T02:27:00.182Z,66.89
2019-05-11T02:29:29.323Z,67.23
2019-05-11T02:31:58.425Z,67.43
2019-05-11T02:34:27.557Z,67.36
2019-05-11T02:36:56.888Z,67.33
2019-05-11T02:39:25.991Z,67.18
2019-05-11T02:41:55.113Z,67.58
2019-05-11T02:44:24.227Z,66.86
2019-05-11T02:46:53.375Z,66.83
2019-05-11T02:49:22.498Z,66.71
2019-05-11T02:51:51.934Z,66.99
2019-05-11T02:54:21.333Z,67.19
2019-05-11T02:56:50.458Z,67.37
2019-05-11T02:59:19.572Z,67.13
2019-05-11T03:01:48.665Z,67.07
2019-05-11T03:04:17.808Z,67.33
2019-05-11T03:06:46.951Z,67.77
2019-05-11T03:09:16.129Z,67.51
2019-05-11T03:11:55.689Z,67.76
2019-05-11T03:14:16.113Z,67.41
2019-05-11T03:16:45.232Z,67.46
2019-05-11T03:19:14.377Z,67.95
2019-05-11T03:21:43.524Z,67.57
2019-05-11T03:24:12.682Z,67.49
2019-05-11T03:26:41.792Z,67.53
2019-05-11T03:29:10.912Z,67.37
2019-05-11T03:31:40.054Z,67.63
2019-05-11T03:34:09.190Z,67.44
2019-05-11T03:36:38.338Z,67.44
2019-05-11T03:39:07.472Z,67.70
2019-05-11T03:41:36.608Z,67.45
2019-05-11T03:44:05.817Z,67.57
2019-05-11T03:46:34.964Z,67.29
2019-05-11T03:49:04.038Z,67.43
2019-05-11T03:51:33.164Z,67.58
2019-05-11T03:54:02.304Z,67.56
2019-05-11T03:56:31.432Z,67.27
2019-05-11T03:59:00.550Z,67.33
2019-05-11T04:01:29.898Z,67.33
2019-05-11T04:03:58.995Z,67.24
2019-05-11T04:06:28.114Z,67.26
2019-05-11T04:08:57.241Z,66.83
2019-05-11T04:11:26.369Z,67.43
2019-05-11T04:13:55.475Z,66.69
2019-05-11T04:16:24.641Z,67.26
2019-05-11T04:18:53.857Z,67.15
2019-05-11T04:21:22.985Z,67.25
2019-05-11T04:23:52.084Z,66.96
2019-05-11T04:26:21.241Z,66.82
2019-05-11T04:28:50.426Z,67.36
2019-05-11T04:31:19.601Z,67.75
2019-05-11T04:33:48.721Z,68.57
2019-05-11T04:36:17.864Z,69.74
2019-05-11T04:38:47.040Z,70.21
2019-05-11T04:41:16.190Z,70.57
2019-05-11T04:43:45.342Z,70.54
2019-05-11T04:46:14.487Z,69.95
2019-05-11T04:48:43.640Z,69.91
2019-05-11T04:51:12.812Z,69.68
2019-05-11T04:53:41.975Z,69.76
2019-05-11T04:56:11.115Z,70.05
2019-05-11T04:58:40.229Z,69.71
2019-05-11T05:01:09.360Z,69.72
2019-05-11T05:03:41.174Z,69.68
2019-05-11T05:06:21.760Z,69.92
2019-05-11T05:08:40.290Z,70.17
2019-05-11T05:11:09.634Z,69.91
2019-05-11T05:13:38.785Z,70.14
2019-05-11T05:16:07.936Z,70.11
2019-05-11T05:18:37.086Z,70.49
2019-05-11T05:21:06.218Z,70.21
2019-05-11T05:23:35.352Z,70.01
2019-05-11T05:26:04.472Z,70.52
2019-05-11T05:28:33.627Z,71.37
2019-05-11T05:31:02.760Z,71.27
2019-05-11T05:33:31.857Z,71.49
2019-05-11T05:36:00.966Z,71.18
2019-05-11T05:38:30.166Z,71.18
2019-05-11T05:40:59.375Z,71.41
2019-05-11T05:43:28.741Z,71.43
2019-05-11T05:45:58.104Z,72.01
2019-05-11T05:48:27.330Z,71.36
2019-05-11T05:50:56.539Z,71.51
2019-05-11T05:53:25.709Z,71.33
2019-05-11T05:55:54.803Z,71.71
2019-05-11T05:58:23.985Z,71.46
2019-05-11T06:00:53.107Z,71.82
2019-05-11T06:03:22.263Z,71.84
2019-05-11T06:05:51.386Z,72.06
2019-05-11T06:08:20.548Z,72.44
2019-05-11T06:10:50.052Z,72.64
2019-05-11T06:13:19.311Z,72.59
2019-05-11T06:15:48.429Z,72.69
2019-05-11T06:18:17.585Z,72.67
2019-05-11T06:20:47.168Z,72.56
2019-05-11T06:23:16.334Z,72.90
2019-05-11T06:25:45.475Z,73.06
2019-05-11T06:28:14.634Z,72.31
2019-05-11T06:30:43.767Z,72.61
2019-05-11T06:33:12.940Z,73.28
2019-05-11T06:35:42.090Z,73.22
2019-05-11T06:38:11.215Z,72.88
2019-05-11T06:40:40.420Z,72.28
2019-05-11T06:43:09.560Z,73.17
2019-05-11T06:45:38.753Z,73.54
2019-05-11T06:48:07.872Z,73.01
2019-05-11T06:50:37.036Z,74.23
2019-05-11T06:53:06.363Z,74.96
2019-05-11T06:55:35.504Z,75.22
2019-05-11T06:58:04.629Z,74.76
2019-05-11T07:00:33.779Z,74.78
2019-05-11T07:03:02.985Z,74.66
2019-05-11T07:05:32.269Z,74.47
2019-05-11T07:08:01.531Z,74.71
2019-05-11T07:10:30.661Z,74.56
2019-05-11T07:12:59.795Z,74.50
2019-05-11T07:15:29.019Z,74.90
2019-05-11T07:17:58.144Z,74.80
2019-05-11T07:20:27.263Z,75.30
2019-05-11T07:22:56.427Z,74.81
2019-05-11T07:25:25.558Z,74.44
2019-05-11T07:27:54.729Z,74.67
2019-05-11T07:30:23.880Z,74.40
2019-05-11T07:32:52.987Z,74.40
2019-05-11T07:35:22.119Z,74.59
2019-05-11T07:37:51.285Z,74.26
2019-05-11T07:40:20.437Z,74.58
2019-05-11T07:42:49.715Z,74.95
2019-05-11T07:45:19.242Z,74.84
2019-05-11T07:47:48.789Z,74.49
2019-05-11T07:50:18.950Z,73.32
2019-05-11T07:52:48.452Z,72.90
2019-05-11T07:55:19.011Z,73.89
2019-05-11T07:57:48.448Z,73.41
2019-05-11T08:00:18.597Z,73.37
2019-05-11T08:02:48.162Z,73.66
2019-05-11T08:05:17.948Z,71.66
2019-05-11T08:07:48.162Z,72.24
2019-05-11T08:10:18.588Z,71.88
2019-05-11T08:12:48.252Z,71.41
2019-05-11T08:15:18.549Z,71.02
2019-05-11T08:17:48.753Z,71.26
2019-05-11T08:20:18.808Z,70.71
2019-05-11T08:22:48.396Z,70.36
2019-05-11T08:25:18.352Z,70.30
2019-05-11T08:27:48.478Z,70.88
2019-05-11T08:30:19.289Z,70.71
2019-05-11T08:32:49.384Z,69.75
2019-05-11T08:35:19.248Z,69.71
2019-05-11T08:37:48.365Z,69.71
2019-05-11T08:40:18.761Z,69.98
2019-05-11T08:42:48.391Z,68.28
2019-05-11T08:45:24.230Z,67.73
2019-05-11T08:47:48.728Z,68.39
2019-05-11T08:50:18.783Z,67.13
2019-05-11T08:52:48.160Z,67.65
2019-05-11T08:55:18.981Z,66.43
2019-05-11T08:57:48.292Z,67.04
2019-05-11T09:00:18.209Z,66.92
2019-05-11T09:02:50.465Z,65.80
2019-05-11T09:05:18.829Z,65.34
2019-05-11T09:07:48.567Z,65.41
2019-05-11T09:10:18.612Z,65.42
2019-05-11T09:12:48.828Z,64.41
2019-05-11T09:15:32.710Z,62.84
2019-05-11T09:17:49.119Z,63.08
2019-05-11T09:20:18.259Z,62.07
2019-05-11T09:22:48.472Z,61.14
2019-05-11T09:25:18.489Z,60.00
2019-05-11T09:27:48.400Z,59.68
2019-05-11T09:30:18.607Z,57.73
2019-05-11T09:32:47.976Z,56.67
2019-05-11T09:35:18.952Z,56.53
2019-05-11T09:37:48.584Z,57.30
2019-05-11T09:40:18.389Z,57.52
2019-05-11T09:42:48.042Z,56.12
2019-05-11T09:45:18.682Z,55.32
2019-05-11T09:47:48.178Z,55.89
2019-05-11T09:50:18.865Z,53.56
2019-05-11T09:52:48.910Z,54.63
2019-05-11T09:55:19.255Z,53.14
2019-05-11T09:57:48.835Z,54.26
2019-05-11T10:00:18.740Z,55.35
2019-05-11T10:02:48.792Z,55.63
2019-05-11T10:05:20.044Z,54.16
2019-05-11T10:07:49.222Z,53.30
2019-05-11T10:10:18.994Z,54.41
2019-05-11T10:12:48.969Z,55.25
2019-05-11T10:15:19.840Z,55.51
2019-05-11T10:17:49.026Z,54.70
2019-05-11T10:20:18.402Z,55.40
2019-05-11T10:22:48.646Z,55.44
2019-05-11T10:25:18.378Z,54.73
2019-05-11T10:27:48.834Z,54.41
2019-05-11T10:30:18.793Z,54.44
2019-05-11T10:32:48.493Z,54.83
2019-05-11T10:35:18.526Z,55.09
2019-05-11T10:37:47.965Z,54.41
2019-05-11T10:40:18.968Z,54.38
2019-05-11T10:42:48.585Z,54.98
2019-05-11T10:45:18.122Z,54.88
2019-05-11T10:47:48.928Z,54.60
2019-05-11T10:50:18.912Z,54.53
2019-05-11T10:52:48.504Z,53.80
2019-05-11T10:55:19.357Z,54.54
2019-05-11T10:57:48.898Z,53.69
2019-05-11T11:00:18.782Z,54.00
2019-05-11T11:02:47.968Z,53.65
2019-05-11T11:05:18.801Z,54.03
2019-05-11T11:07:48.526Z,54.20
2019-05-11T11:10:18.396Z,53.29
2019-05-11T11:12:49.053Z,53.50
2019-05-11T11:15:18.721Z,53.28
2019-05-11T11:17:48.690Z,53.67
2019-05-11T11:20:18.716Z,53.57
2019-05-11T11:22:48.409Z,53.16
2019-05-11T11:25:18.178Z,53.26
2019-05-11T11:27:48.643Z,51.56
2019-05-11T11:30:18.623Z,51.65
2019-05-11T11:32:48.391Z,51.07
2019-05-11T11:35:18.758Z,50.86
2019-05-11T11:37:48.256Z,50.83
2019-05-11T11:40:17.986Z,51.57
2019-05-11T11:42:47.828Z,51.78
2019-05-11T11:45:18.301Z,52.79
2019-05-11T11:47:49.412Z,52.96
2019-05-11T11:50:18.631Z,54.05
2019-05-11T11:52:47.860Z,54.25
2019-05-11T11:55:18.562Z,55.47
2019-05-11T11:57:49.043Z,55.10
2019-05-11T12:00:20.067Z,56.33
2019-05-11T12:02:49.221Z,58.47
2019-05-11T12:05:18.501Z,60.16
2019-05-11T12:07:48.988Z,60.50
2019-05-11T12:10:19.790Z,61.24
2019-05-11T12:12:49.160Z,61.13
2019-05-11T12:15:18.435Z,63.00
2019-05-11T12:17:48.332Z,63.30
2019-05-11T12:20:18.320Z,63.58
2019-05-11T12:22:47.740Z,63.33
2019-05-11T12:25:18.575Z,63.31
2019-05-11T12:27:49.127Z,63.22
2019-05-11T12:30:18.535Z,63.29
2019-05-11T12:32:49.677Z,63.01
2019-05-11T12:35:19.339Z,63.04
2019-05-11T12:37:48.685Z,62.70
2019-05-11T12:40:18.850Z,62.15
2019-05-11T12:42:48.928Z,62.01
2019-05-11T12:45:18.614Z,60.46
2019-05-11T12:47:48.171Z,61.07
2019-05-11T12:50:18.698Z,60.40
2019-05-11T12:52:47.936Z,59.77
2019-05-11T12:55:18.045Z,58.91
2019-05-11T12:57:48.075Z,57.72
2019-05-11T13:00:18.052Z,57.79
2019-05-11T13:02:48.388Z,56.21
2019-05-11T13:05:18.168Z,56.90
2019-05-11T13:07:48.200Z,56.88
2019-05-11T13:10:17.999Z,56.25
2019-05-11T13:12:49.240Z,56.71
2019-05-11T13:15:18.185Z,55.94
2019-05-11T13:17:49.187Z,56.85
2019-05-11T13:20:18.294Z,56.27
2019-05-11T13:22:48.922Z,56.10
2019-05-11T13:25:18.331Z,55.15
2019-05-11T13:27:49.147Z,55.60
2019-05-11T13:30:18.907Z,55.38
2019-05-11T13:32:49.014Z,55.58
2019-05-11T13:35:18.448Z,54.88
2019-05-11T13:37:48.079Z,54.91
2019-05-11T13:40:18.478Z,54.02
2019-05-11T13:42:48.977Z,53.40
2019-05-11T13:45:18.369Z,53.55
2019-05-11T13:47:52.544Z,53.24
2019-05-11T13:50:18.430Z,53.62
2019-05-11T13:52:47.927Z,53.02
2019-05-11T13:55:18.265Z,53.33
2019-05-11T13:57:48.535Z,53.20
2019-05-11T14:00:18.307Z,53.91
2019-05-11T14:02:48.632Z,53.84
2019-05-11T14:05:18.244Z,53.43
2019-05-11T14:07:48.372Z,53.81
2019-05-11T14:10:18.293Z,53.62
2019-05-11T14:12:47.890Z,53.59
2019-05-11T14:15:18.884Z,53.97
2019-05-11T14:17:48.770Z,54.28
2019-05-11T14:20:19.241Z,49.56
2019-05-11T14:22:48.478Z,47.67
2019-05-11T14:25:18.696Z,49.46
2019-05-11T14:27:48.137Z,49.78
2019-05-11T14:30:19.153Z,49.54
2019-05-11T14:32:48.580Z,49.64
2019-05-11T14:35:18.828Z,49.85
2019-05-11T14:37:48.807Z,49.77
2019-05-11T14:40:18.432Z,49.29
2019-05-11T14:42:48.967Z,48.76
2019-05-11T14:45:19.009Z,47.97
2019-05-11T14:47:48.438Z,47.06
2019-05-11T14:50:18.798Z,47.63
2019-05-11T14:52:49.039Z,47.40
2019-05-11T14:55:18.666Z,48.03
2019-05-11T14:57:48.599Z,48.36
2019-05-11T15:00:19.736Z,48.69
2019-05-11T15:02:49.972Z,48.91
2019-05-11T15:05:21.142Z,49.55
2019-05-11T15:07:52.567Z,49.57
2019-05-11T15:10:21.855Z,50.07
2019-05-11T15:12:51.065Z,50.19
2019-05-11T15:15:20.659Z,50.59
2019-05-11T15:17:49.855Z,50.56
2019-05-11T15:20:19.389Z,50.79
2019-05-11T15:22:49.016Z,50.79
2019-05-11T15:25:19.573Z,50.73
2019-05-11T15:27:49.182Z,50.42
2019-05-11T15:30:18.737Z,51.07
2019-05-11T15:32:48.440Z,51.94
2019-05-11T15:35:18.509Z,51.80
2019-05-11T15:37:48.304Z,51.67
2019-05-11T15:40:19.513Z,52.12
2019-05-11T15:42:48.984Z,52.52
2019-05-11T15:45:19.716Z,52.42
2019-05-11T15:47:49.173Z,52.02
2019-05-11T15:50:19.203Z,51.82
2019-05-11T15:52:49.157Z,50.81
2019-05-11T15:55:19.276Z,50.71
2019-05-11T15:57:48.637Z,50.76
2019-05-11T16:00:18.644Z,51.47
2019-05-11T16:02:48.922Z,51.17
2019-05-11T16:05:19.067Z,50.96
2019-05-11T16:07:49.123Z,51.11
2019-05-11T16:10:19.734Z,51.22
2019-05-11T16:12:49.312Z,50.97
2019-05-11T16:15:19.748Z,51.20
2019-05-11T16:17:49.230Z,51.44
2019-05-11T16:20:18.891Z,51.92
2019-05-11T16:22:48.425Z,51.57
2019-05-11T16:25:20.066Z,51.13
2019-05-11T16:27:49.638Z,50.77
2019-05-11T16:30:21.647Z,50.56
2019-05-11T16:32:49.651Z,50.23
2019-05-11T16:35:19.534Z,49.38
2019-05-11T16:37:48.946Z,49.52
2019-05-11T16:40:20.743Z,49.15
2019-05-11T16:42:49.641Z,49.10
2019-05-11T16:45:23.567Z,49.48
2019-05-11T16:47:51.056Z,49.50
2019-05-11T16:50:20.222Z,50.07
2019-05-11T16:52:49.484Z,50.05
2019-05-11T16:55:21.745Z,50.30
2019-05-11T16:57:50.941Z,49.82
2019-05-11T17:00:20.316Z,49.68
2019-05-11T17:02:49.841Z,49.79
2019-05-11T17:05:26.360Z,49.80
2019-05-11T17:07:49.954Z,49.88
2019-05-11T17:10:22.780Z,49.44
2019-05-11T17:12:52.004Z,49.79
2019-05-11T17:15:21.247Z,49.39
2019-05-11T17:17:50.450Z,49.91
2019-05-11T17:20:19.682Z,49.59
2019-05-11T17:22:49.179Z,49.73
2019-05-11T17:25:19.853Z,50.29
2019-05-11T17:27:49.399Z,49.59
2019-05-11T17:30:19.808Z,49.63
2019-05-11T17:32:49.784Z,50.02
2019-05-11T17:35:19.995Z,50.35
2019-05-11T17:37:51.629Z,50.72
2019-05-11T17:40:23.493Z,50.35
2019-05-11T17:42:53.946Z,50.89
2019-05-11T17:45:23.184Z,51.02
2019-05-11T17:47:52.453Z,51.25
2019-05-11T17:50:21.668Z,51.55
2019-05-11T17:52:50.963Z,51.62
2019-05-11T17:55:22.159Z,51.69
2019-05-11T17:57:53.900Z,52.28
2019-05-11T18:00:22.633Z,52.05
2019-05-11T18:02:51.881Z,52.12
2019-05-11T18:05:21.138Z,52.25
2019-05-11T18:07:50.530Z,52.30
2019-05-11T18:10:21.338Z,52.47
2019-05-11T18:12:50.528Z,52.33
2019-05-11T18:15:20.015Z,52.48
2019-05-11T18:17:49.497Z,52.82
2019-05-11T18:20:21.976Z,53.16
2019-05-11T18:22:50.612Z,53.26
2019-05-11T18:25:19.804Z,53.73
2019-05-11T18:27:49.114Z,53.95
2019-05-11T18:30:19.053Z,54.38
2019-05-11T18:32:49.379Z,54.51
2019-05-11T18:35:20.125Z,54.38
2019-05-11T18:37:51.561Z,54.62
2019-05-11T18:40:28.691Z,54.72
2019-05-11T18:43:02.295Z,54.96
2019-05-11T18:45:30.828Z,55.42
2019-05-11T18:48:00.141Z,55.43
2019-05-11T18:50:31.312Z,55.67
2019-05-11T18:53:01.409Z,55.64
2019-05-11T18:55:34.098Z,55.52
2019-05-11T18:58:03.392Z,55.71
2019-05-11T19:00:33.860Z,55.66
2019-05-11T19:03:03.121Z,55.35
2019-05-11T19:05:32.404Z,55.25
2019-05-11T19:08:03.143Z,55.19
2019-05-11T19:10:32.628Z,55.22
2019-05-11T19:13:01.952Z,55.22
2019-05-11T19:15:31.494Z,55.66
2019-05-11T19:18:00.734Z,56.21
2019-05-11T19:20:44.555Z,56.20
2019-05-11T19:23:02.332Z,56.47
2019-05-11T19:25:31.921Z,56.64
2019-05-11T19:28:01.191Z,56.79
2019-05-11T19:30:32.254Z,56.78
2019-05-11T19:33:01.487Z,56.86
2019-05-11T19:35:31.212Z,56.91
2019-05-11T19:38:00.463Z,57.09
2019-05-11T19:40:30.629Z,57.18
2019-05-11T19:43:05.109Z,57.29
2019-05-11T19:45:38.313Z,57.38
2019-05-11T19:48:08.357Z,57.44
2019-05-11T19:50:40.914Z,57.39
2019-05-11T19:53:10.093Z,57.56
2019-05-11T19:55:40.497Z,57.91
2019-05-11T19:58:09.693Z,57.83
2019-05-11T20:00:39.123Z,57.83
2019-05-11T20:03:09.142Z,57.80
2019-05-11T20:05:38.767Z,57.78
2019-05-11T20:08:10.637Z,57.55
2019-05-11T20:10:40.218Z,57.82
2019-05-11T20:13:09.981Z,58.22
2019-05-11T20:15:39.338Z,58.14
2019-05-11T20:18:08.558Z,58.40
2019-05-11T20:20:37.847Z,58.79
2019-05-11T20:23:07.806Z,59.14
2019-05-11T20:25:37.972Z,59.13
2019-05-11T20:28:07.439Z,59.04
2019-05-11T20:30:36.751Z,59.24
2019-05-11T20:33:05.904Z,59.70
2019-05-11T20:35:35.191Z,59.79
2019-05-11T20:38:04.370Z,59.91
2019-05-11T20:40:40.933Z,59.89
2019-05-11T20:43:10.660Z,60.23
2019-05-11T20:45:39.887Z,60.23
2019-05-11T20:48:09.636Z,60.30
2019-05-11T20:50:39.090Z,60.45
2019-05-11T20:53:08.671Z,60.39
2019-05-11T20:55:37.933Z,60.52
2019-05-11T20:58:08.634Z,60.42
2019-05-11T21:00:38.404Z,61.02
2019-05-11T21:03:08.173Z,61.17
2019-05-11T21:05:37.335Z,61.70
2019-05-11T21:08:08.523Z,61.82
2019-05-11T21:10:38.654Z,62.58
2019-05-11T21:13:08.581Z,62.41
2019-05-11T21:15:38.541Z,62.53
2019-05-11T21:18:10.089Z,62.69
2019-05-11T21:20:39.609Z,63.28
2019-05-11T21:23:08.788Z,63.46
2019-05-11T21:25:37.985Z,63.41
2019-05-11T21:28:08.475Z,63.54
2019-05-11T21:30:39.987Z,63.28
2019-05-11T21:33:08.844Z,63.33
2019-05-11T21:35:38.595Z,63.80
2019-05-11T21:38:07.875Z,64.11
2019-05-11T21:40:38.078Z,64.27
2019-05-11T21:43:08.777Z,64.33
2019-05-11T21:45:40.495Z,64.62
2019-05-11T21:48:08.992Z,64.62
2019-05-11T21:50:38.325Z,64.87
2019-05-11T21:53:10.203Z,64.73
2019-05-11T21:55:38.303Z,64.72
2019-05-11T21:58:09.037Z,65.07
2019-05-11T22:00:38.819Z,65.78
2019-05-11T22:03:10.192Z,65.66
2019-05-11T22:05:38.873Z,65.59
2019-05-11T22:08:08.695Z,65.97
2019-05-11T22:10:38.548Z,65.90
2019-05-11T22:13:07.930Z,66.30
2019-05-11T22:15:38.550Z,66.49
2019-05-11T22:18:08.168Z,66.88
2019-05-11T22:20:40.668Z,67.21
2019-05-11T22:23:08.624Z,67.11
2019-05-11T22:25:38.354Z,67.00
2019-05-11T22:28:08.515Z,67.25
2019-05-11T22:30:39.243Z,67.20
2019-05-11T22:33:08.943Z,67.11
2019-05-11T22:35:38.499Z,67.19
2019-05-11T22:38:08.390Z,67.49
2019-05-11T22:40:38.361Z,67.76
2019-05-11T22:43:09.375Z,67.81
2019-05-11T22:45:38.772Z,68.23
2019-05-11T22:48:08.135Z,68.58
2019-05-11T22:50:38.253Z,69.54
2019-05-11T22:53:08.679Z,69.81
2019-05-11T22:55:38.427Z,70.17
2019-05-11T22:58:08.564Z,70.75
2019-05-11T23:00:42.999Z,70.73
2019-05-11T23:03:13.873Z,70.74
2019-05-11T23:05:43.330Z,71.19
2019-05-11T23:08:12.580Z,70.64
2019-05-11T23:10:41.735Z,71.06
2019-05-11T23:13:11.608Z,71.56
2019-05-11T23:15:40.903Z,72.16
2019-05-11T23:18:10.040Z,72.70
2019-05-11T23:20:39.177Z,73.07
2019-05-11T23:23:08.875Z,73.66
2019-05-11T23:25:38.248Z,73.89
2019-05-11T23:28:07.389Z,74.11
2019-05-11T23:30:38.679Z,74.11
2019-05-11T23:33:07.917Z,74.45
2019-05-11T23:35:38.226Z,74.20
2019-05-11T23:38:07.635Z,74.77
2019-05-11T23:40:37.965Z,75.64
2019-05-11T23:43:08.675Z,75.63
2019-05-11T23:45:38.419Z,75.68
2019-05-11T23:48:07.656Z,75.48
2019-05-11T23:50:38.583Z,75.23
2019-05-11T23:53:10.203Z,75.23
2019-05-11T23:55:38.605Z,75.10
2019-05-11T23:58:08.268Z,75.27
